createdAt,value
2023-03-06T00:00:40.138Z,2.53
2023-03-06T00:03:08.009Z,2.52
2023-03-06T00:05:35.631Z,2.55
2023-03-06T00:08:05.780Z,2.59
2023-03-06T00:10:33.899Z,2.61
2023-03-06T00:13:05.899Z,2.58
2023-03-06T00:15:33.637Z,2.59
2023-03-06T00:18:03.701Z,2.60
2023-03-06T00:20:33.242Z,2.61
2023-03-06T00:23:00.963Z,2.61
2023-03-06T00:25:28.822Z,2.63
2023-03-06T00:27:56.464Z,2.66
2023-03-06T00:30:25.791Z,2.68
2023-03-06T00:32:54.498Z,2.69
2023-03-06T00:35:22.273Z,2.69
2023-03-06T00:37:50.002Z,2.69
2023-03-06T00:40:21.473Z,2.70
2023-03-06T00:42:52.086Z,2.69
2023-03-06T00:45:22.465Z,2.68
2023-03-06T00:47:50.265Z,2.70
2023-03-06T00:50:17.941Z,2.71
2023-03-06T00:52:45.525Z,2.71
2023-03-06T00:55:13.194Z,2.72
2023-03-06T00:57:43.084Z,2.75
2023-03-06T01:00:12.304Z,2.73
2023-03-06T01:02:40.191Z,2.74
2023-03-06T01:05:11.233Z,2.74
2023-03-06T01:07:38.933Z,2.75
2023-03-06T01:10:11.452Z,2.73
2023-03-06T01:12:39.008Z,2.79
2023-03-06T01:15:09.164Z,2.81
2023-03-06T01:17:36.992Z,2.81
2023-03-06T01:20:05.925Z,2.82
2023-03-06T01:22:33.593Z,2.82
2023-03-06T01:25:01.248Z,2.80
2023-03-06T01:27:28.882Z,2.79
2023-03-06T01:29:56.598Z,2.79
2023-03-06T01:32:26.725Z,2.79
2023-03-06T01:34:54.397Z,2.77
2023-03-06T01:37:22.000Z,2.76
2023-03-06T01:39:51.792Z,2.76
2023-03-06T01:42:19.393Z,2.69
2023-03-06T01:45:02.302Z,2.74
2023-03-06T01:47:29.979Z,2.73
2023-03-06T01:49:58.915Z,2.73
2023-03-06T01:52:40.124Z,2.74
2023-03-06T01:55:15.866Z,2.75
2023-03-06T01:57:50.097Z,2.71
2023-03-06T02:00:24.792Z,2.72
2023-03-06T02:03:15.536Z,2.73
2023-03-06T02:05:44.763Z,2.72
2023-03-06T02:08:15.433Z,2.72
2023-03-06T02:11:18.348Z,2.74
2023-03-06T02:13:47.156Z,2.77
2023-03-06T02:16:16.947Z,2.77
2023-03-06T02:18:46.837Z,2.79
2023-03-06T02:21:46.647Z,2.77
2023-03-06T02:24:14.206Z,2.81
2023-03-06T02:26:44.227Z,2.81
2023-03-06T02:29:12.256Z,2.83
2023-03-06T02:31:39.959Z,2.85
2023-03-06T02:34:30.364Z,2.84
2023-03-06T02:37:09.963Z,2.88
2023-03-06T02:39:42.613Z,2.86
2023-03-06T02:42:10.285Z,2.90
2023-03-06T02:44:40.510Z,2.93
2023-03-06T02:47:10.893Z,2.94
2023-03-06T02:49:40.807Z,2.95
2023-03-06T02:52:09.023Z,2.98
2023-03-06T02:54:36.789Z,3.00
2023-03-06T02:57:04.442Z,3.00
2023-03-06T02:59:32.116Z,3.01
2023-03-06T03:02:00.057Z,3.01
2023-03-06T03:04:27.769Z,3.02
2023-03-06T03:06:57.887Z,3.02
2023-03-06T03:09:25.501Z,2.95
2023-03-06T03:11:53.196Z,3.04
2023-03-06T03:14:20.797Z,3.06
2023-03-06T03:16:48.497Z,3.04
2023-03-06T03:19:16.121Z,3.05
2023-03-06T03:21:43.772Z,3.05
2023-03-06T03:24:13.647Z,3.02
2023-03-06T03:26:41.321Z,3.07
2023-03-06T03:29:09.778Z,3.05
2023-03-06T03:31:37.961Z,3.06
2023-03-06T03:34:05.571Z,3.02
2023-03-06T03:36:33.216Z,3.05
2023-03-06T03:39:01.050Z,3.05
2023-03-06T03:41:28.654Z,3.06
2023-03-06T03:43:56.249Z,3.05
2023-03-06T03:46:23.866Z,3.08
2023-03-06T03:48:51.566Z,3.04
2023-03-06T03:51:19.298Z,3.05
2023-03-06T03:53:46.954Z,3.04
2023-03-06T03:56:14.901Z,3.06
2023-03-06T03:58:42.549Z,3.05
2023-03-06T04:01:12.619Z,3.05
2023-03-06T04:03:40.270Z,3.05
2023-03-06T04:06:08.263Z,3.02
2023-03-06T04:08:36.124Z,2.97
2023-03-06T04:11:04.115Z,3.02
2023-03-06T04:13:31.728Z,3.01
2023-03-06T04:16:00.126Z,3.02
2023-03-06T04:18:28.519Z,3.02
2023-03-06T04:20:58.692Z,3.00
2023-03-06T04:23:27.866Z,3.00
2023-03-06T04:25:55.605Z,3.02
2023-03-06T04:28:28.353Z,2.97
2023-03-06T04:30:58.513Z,2.99
2023-03-06T04:33:26.134Z,3.02
2023-03-06T04:35:53.806Z,3.01
2023-03-06T04:38:21.520Z,3.02
2023-03-06T04:40:49.820Z,3.01
2023-03-06T04:43:17.903Z,2.99
2023-03-06T04:45:45.726Z,3.00
2023-03-06T04:48:18.401Z,2.98
2023-03-06T04:50:46.483Z,2.96
2023-03-06T04:53:16.976Z,2.96
2023-03-06T04:55:44.591Z,2.98
2023-03-06T04:58:14.994Z,2.97
2023-03-06T05:00:46.264Z,2.98
2023-03-06T05:03:15.115Z,2.98
2023-03-06T05:05:45.984Z,2.97
2023-03-06T05:08:15.403Z,2.99
2023-03-06T05:10:45.120Z,2.96
2023-03-06T05:13:13.074Z,2.94
2023-03-06T05:15:43.860Z,2.94
2023-03-06T05:18:11.485Z,2.96
2023-03-06T05:20:41.249Z,2.88
2023-03-06T05:23:08.891Z,2.96
2023-03-06T05:25:36.566Z,2.96
2023-03-06T05:28:06.631Z,2.94
2023-03-06T05:30:34.386Z,2.95
2023-03-06T05:33:04.724Z,2.96
2023-03-06T05:35:32.706Z,2.98
2023-03-06T05:38:00.404Z,3.00
2023-03-06T05:40:28.175Z,3.01
2023-03-06T05:42:55.963Z,3.01
2023-03-06T05:45:25.782Z,3.02
2023-03-06T05:47:55.943Z,3.02
2023-03-06T05:50:23.502Z,3.02
2023-03-06T05:52:51.377Z,3.02
2023-03-06T05:55:22.614Z,3.01
2023-03-06T05:57:52.892Z,3.00
2023-03-06T06:00:25.717Z,3.00
2023-03-06T06:02:53.325Z,3.00
2023-03-06T06:05:22.904Z,3.00
2023-03-06T06:07:50.513Z,3.02
2023-03-06T06:10:18.253Z,3.07
2023-03-06T06:12:45.837Z,3.10
2023-03-06T06:15:14.672Z,3.09
2023-03-06T06:17:42.619Z,3.12
2023-03-06T06:20:10.771Z,3.15
2023-03-06T06:22:38.946Z,3.20
2023-03-06T06:25:07.806Z,3.16
2023-03-06T06:27:35.662Z,3.21
2023-03-06T06:30:07.912Z,3.24
2023-03-06T06:32:38.115Z,3.22
2023-03-06T06:35:06.321Z,3.25
2023-03-06T06:37:34.506Z,3.24
2023-03-06T06:40:02.513Z,3.20
2023-03-06T06:42:36.946Z,3.23
2023-03-06T06:45:10.792Z,3.26
2023-03-06T06:47:41.725Z,3.33
2023-03-06T06:50:15.111Z,3.38
2023-03-06T06:52:42.799Z,3.46
2023-03-06T06:55:11.901Z,3.52
2023-03-06T06:57:39.460Z,3.60
2023-03-06T07:00:10.572Z,3.65
2023-03-06T07:02:38.180Z,3.62
2023-03-06T07:05:06.525Z,3.60
2023-03-06T07:07:39.005Z,3.60
2023-03-06T07:10:12.376Z,3.60
2023-03-06T07:12:40.325Z,3.60
2023-03-06T07:15:08.599Z,3.62
2023-03-06T07:17:36.271Z,3.66
2023-03-06T07:20:05.995Z,3.70
2023-03-06T07:22:49.955Z,3.75
2023-03-06T07:25:22.425Z,3.76
2023-03-06T07:27:54.508Z,3.74
2023-03-06T07:30:25.803Z,3.79
2023-03-06T07:32:57.948Z,3.73
2023-03-06T07:35:26.150Z,3.78
2023-03-06T07:37:54.299Z,3.67
2023-03-06T07:40:22.419Z,3.77
2023-03-06T07:42:50.061Z,3.79
2023-03-06T07:45:17.816Z,3.87
2023-03-06T07:47:46.447Z,3.89
2023-03-06T07:50:16.558Z,3.90
2023-03-06T07:52:44.612Z,3.95
2023-03-06T07:55:14.864Z,3.76
2023-03-06T07:57:44.907Z,3.64
2023-03-06T08:00:16.948Z,3.69
2023-03-06T08:02:45.681Z,3.80
2023-03-06T08:05:17.680Z,3.90
2023-03-06T08:07:48.229Z,4.01
2023-03-06T08:10:17.863Z,4.09
2023-03-06T08:12:45.513Z,4.12
2023-03-06T08:15:13.772Z,4.11
2023-03-06T08:17:41.888Z,4.07
2023-03-06T08:20:11.437Z,3.86
2023-03-06T08:22:39.531Z,3.89
2023-03-06T08:25:10.595Z,3.95
2023-03-06T08:27:40.536Z,4.00
2023-03-06T08:30:11.334Z,4.03
2023-03-06T08:32:39.462Z,4.18
2023-03-06T08:35:07.818Z,4.40
2023-03-06T08:37:35.491Z,4.65
2023-03-06T08:40:04.813Z,4.80
2023-03-06T08:42:33.328Z,4.78
2023-03-06T08:45:00.900Z,5.10
2023-03-06T08:47:28.492Z,5.20
2023-03-06T08:49:56.130Z,5.37
2023-03-06T08:52:23.737Z,5.81
2023-03-06T08:54:53.884Z,5.90
2023-03-06T08:57:23.946Z,5.89
2023-03-06T08:59:51.538Z,5.98
2023-03-06T09:02:19.310Z,6.07
2023-03-06T09:04:46.948Z,6.09
2023-03-06T09:07:14.547Z,5.91
2023-03-06T09:09:42.679Z,5.95
2023-03-06T09:12:11.393Z,6.44
2023-03-06T09:14:40.444Z,6.70
2023-03-06T09:17:08.147Z,6.56
2023-03-06T09:19:35.875Z,6.83
2023-03-06T09:22:03.473Z,7.15
2023-03-06T09:24:31.123Z,6.73
2023-03-06T09:27:01.950Z,6.35
2023-03-06T09:29:29.880Z,6.17
2023-03-06T09:31:57.504Z,7.85
2023-03-06T09:34:25.118Z,8.14
2023-03-06T09:36:57.566Z,8.55
2023-03-06T09:39:27.248Z,9.09
2023-03-06T09:41:58.407Z,10.25
2023-03-06T09:44:28.633Z,10.15
2023-03-06T09:46:58.922Z,9.85
2023-03-06T09:49:44.635Z,8.96
2023-03-06T09:52:21.193Z,9.20
2023-03-06T09:54:52.703Z,8.09
2023-03-06T09:57:25.319Z,7.82
2023-03-06T09:59:56.488Z,8.00
2023-03-06T10:02:32.550Z,8.02
2023-03-06T10:05:04.077Z,8.11
2023-03-06T10:07:46.485Z,7.39
2023-03-06T10:10:44.019Z,7.27
2023-03-06T10:13:26.179Z,7.00
2023-03-06T10:16:01.483Z,6.96
2023-03-06T10:18:29.155Z,6.97
2023-03-06T10:21:17.270Z,6.97
2023-03-06T10:23:58.643Z,6.92
2023-03-06T10:26:32.737Z,6.37
2023-03-06T10:29:00.446Z,6.07
2023-03-06T10:31:29.874Z,5.93
2023-03-06T10:34:16.222Z,5.92
2023-03-06T10:36:43.858Z,5.93
2023-03-06T10:39:17.813Z,5.75
2023-03-06T10:41:46.281Z,5.73
2023-03-06T10:44:13.940Z,5.88
2023-03-06T10:46:43.054Z,5.86
2023-03-06T10:49:30.082Z,5.88
2023-03-06T10:52:02.029Z,5.88
2023-03-06T10:54:32.293Z,5.93
2023-03-06T10:57:19.459Z,6.01
2023-03-06T11:00:05.738Z,6.15
2023-03-06T11:02:41.443Z,6.23
2023-03-06T11:05:21.302Z,6.29
2023-03-06T11:07:59.884Z,6.39
2023-03-06T11:10:29.435Z,6.42
2023-03-06T11:13:02.661Z,6.48
2023-03-06T11:15:33.539Z,6.60
2023-03-06T11:18:25.326Z,6.73
2023-03-06T11:20:56.690Z,6.73
2023-03-06T11:23:38.454Z,6.58
2023-03-06T11:26:27.014Z,6.64
2023-03-06T11:29:15.218Z,6.73
2023-03-06T11:31:50.857Z,6.76
2023-03-06T11:34:35.736Z,6.86
2023-03-06T11:37:14.670Z,6.68
2023-03-06T11:39:48.002Z,6.72
2023-03-06T11:42:18.292Z,6.57
2023-03-06T11:45:10.233Z,6.61
2023-03-06T11:48:04.328Z,6.68
2023-03-06T11:50:40.633Z,6.75
2023-03-06T11:53:16.286Z,6.79
2023-03-06T11:56:15.103Z,6.82
2023-03-06T11:59:17.157Z,6.82
2023-03-06T12:01:53.902Z,6.82
2023-03-06T12:04:43.390Z,6.84
2023-03-06T12:07:10.940Z,6.75
2023-03-06T12:09:44.682Z,6.73
2023-03-06T12:12:12.209Z,6.78
2023-03-06T12:15:15.392Z,6.87
2023-03-06T12:17:59.869Z,6.97
2023-03-06T12:21:00.025Z,7.10
2023-03-06T12:23:45.826Z,7.26
2023-03-06T12:26:33.678Z,7.30
2023-03-06T12:29:28.067Z,7.33
2023-03-06T12:32:06.498Z,7.53
2023-03-06T12:35:23.491Z,7.58
2023-03-06T12:38:06.114Z,7.52
2023-03-06T12:40:54.643Z,7.45
2023-03-06T12:43:46.745Z,7.32
2023-03-06T12:46:21.468Z,7.35
2023-03-06T12:49:32.839Z,7.28
2023-03-06T12:52:02.515Z,7.22
2023-03-06T12:54:34.759Z,7.22
2023-03-06T12:57:12.497Z,7.13
2023-03-06T12:59:49.996Z,7.12
2023-03-06T13:03:01.022Z,7.01
2023-03-06T13:05:52.939Z,6.99
2023-03-06T13:08:32.803Z,6.96
2023-03-06T13:11:29.699Z,6.98
2023-03-06T13:13:58.208Z,6.92
2023-03-06T13:16:32.642Z,6.93
2023-03-06T13:19:34.105Z,6.87
2023-03-06T13:22:03.211Z,6.75
2023-03-06T13:24:32.888Z,6.79
2023-03-06T13:27:06.974Z,6.84
2023-03-06T13:29:37.646Z,6.86
2023-03-06T13:32:05.247Z,6.83
2023-03-06T13:34:32.774Z,6.82
2023-03-06T13:37:18.521Z,6.77
2023-03-06T13:39:55.151Z,6.65
2023-03-06T13:42:31.788Z,6.74
2023-03-06T13:45:09.121Z,6.76
2023-03-06T13:48:05.767Z,6.72
2023-03-06T13:50:31.742Z,6.64
2023-03-06T13:53:24.693Z,6.66
2023-03-06T13:55:59.741Z,6.56
2023-03-06T13:58:33.288Z,6.40
2023-03-06T14:01:20.239Z,6.47
2023-03-06T14:04:00.252Z,6.45
2023-03-06T14:06:50.362Z,6.26
2023-03-06T14:09:30.962Z,6.11
2023-03-06T14:12:18.170Z,6.21
2023-03-06T14:14:51.800Z,6.15
2023-03-06T14:17:26.685Z,6.13
2023-03-06T14:19:54.511Z,6.01
2023-03-06T14:22:25.808Z,6.04
2023-03-06T14:25:01.814Z,5.98
2023-03-06T14:27:43.519Z,5.96
2023-03-06T14:30:17.464Z,5.88
2023-03-06T14:32:46.107Z,5.92
2023-03-06T14:35:25.241Z,5.83
2023-03-06T14:37:59.765Z,5.99
2023-03-06T14:40:34.846Z,5.93
2023-03-06T14:43:22.102Z,5.69
2023-03-06T14:45:53.950Z,5.66
2023-03-06T14:48:22.091Z,5.57
2023-03-06T14:51:02.881Z,5.55
2023-03-06T14:53:35.272Z,5.47
2023-03-06T14:56:08.152Z,5.47
2023-03-06T14:58:44.070Z,5.52
2023-03-06T15:01:14.647Z,5.51
2023-03-06T15:03:51.618Z,5.46
2023-03-06T15:06:22.427Z,5.50
2023-03-06T15:09:07.870Z,5.52
2023-03-06T15:11:54.171Z,5.45
2023-03-06T15:14:49.277Z,5.39
2023-03-06T15:17:42.834Z,5.32
2023-03-06T15:20:48.066Z,5.29
2023-03-06T15:23:24.639Z,5.25
2023-03-06T15:25:56.413Z,5.16
2023-03-06T15:28:26.855Z,5.18
2023-03-06T15:31:21.906Z,5.10
2023-03-06T15:34:10.369Z,5.07
2023-03-06T15:36:42.365Z,5.05
2023-03-06T15:39:39.030Z,4.99
2023-03-06T15:42:42.208Z,4.95
2023-03-06T15:45:19.563Z,4.87
2023-03-06T15:47:49.211Z,4.86
2023-03-06T15:50:21.088Z,4.87
2023-03-06T15:52:52.243Z,4.86
2023-03-06T15:55:22.697Z,4.81
2023-03-06T15:57:56.608Z,4.78
2023-03-06T16:00:28.606Z,4.71
2023-03-06T16:02:57.214Z,4.70
2023-03-06T16:05:26.594Z,4.65
2023-03-06T16:07:54.921Z,4.60
2023-03-06T16:10:25.291Z,4.58
2023-03-06T16:12:57.877Z,4.54
2023-03-06T16:15:30.057Z,4.47
2023-03-06T16:18:01.087Z,4.45
2023-03-06T16:20:32.741Z,4.39
2023-03-06T16:23:01.172Z,4.32
2023-03-06T16:25:31.134Z,4.26
2023-03-06T16:27:59.535Z,4.19
2023-03-06T16:30:31.587Z,4.13
2023-03-06T16:33:00.211Z,4.08
2023-03-06T16:35:28.373Z,4.05
2023-03-06T16:37:56.116Z,4.01
2023-03-06T16:40:27.045Z,4.02
2023-03-06T16:42:55.285Z,4.02
2023-03-06T16:45:24.200Z,4.00
2023-03-06T16:47:52.506Z,3.98
2023-03-06T16:50:24.754Z,4.01
2023-03-06T16:52:53.922Z,3.99
2023-03-06T16:55:24.854Z,4.01
2023-03-06T16:57:53.158Z,3.99
2023-03-06T17:00:25.016Z,3.98
2023-03-06T17:02:53.457Z,4.03
2023-03-06T17:05:21.344Z,4.02
2023-03-06T17:07:50.344Z,4.00
2023-03-06T17:10:19.338Z,4.01
2023-03-06T17:12:47.043Z,4.01
2023-03-06T17:15:14.776Z,4.03
2023-03-06T17:17:42.390Z,4.04
2023-03-06T17:20:13.062Z,4.03
2023-03-06T17:22:43.218Z,4.00
2023-03-06T17:25:11.426Z,3.98
2023-03-06T17:27:39.315Z,3.97
2023-03-06T17:30:07.748Z,3.97
2023-03-06T17:32:35.626Z,3.94
2023-03-06T17:35:03.315Z,3.91
2023-03-06T17:37:32.544Z,3.89
2023-03-06T17:40:02.331Z,3.88
2023-03-06T17:42:30.990Z,3.85
2023-03-06T17:44:58.588Z,3.83
2023-03-06T17:47:26.401Z,3.78
2023-03-06T17:49:54.091Z,3.75
2023-03-06T17:52:26.214Z,3.67
2023-03-06T17:54:54.750Z,3.69
2023-03-06T17:57:22.433Z,3.66
2023-03-06T17:59:53.060Z,3.61
2023-03-06T18:02:21.015Z,3.60
2023-03-06T18:04:48.653Z,3.57
2023-03-06T18:07:16.758Z,3.59
2023-03-06T18:09:44.432Z,3.61
2023-03-06T18:12:14.680Z,3.62
2023-03-06T18:14:44.639Z,3.64
2023-03-06T18:17:12.204Z,3.67
2023-03-06T18:19:41.273Z,3.67
2023-03-06T18:22:08.976Z,3.67
2023-03-06T18:24:40.635Z,3.68
2023-03-06T18:27:08.666Z,3.66
2023-03-06T18:29:36.266Z,3.69
2023-03-06T18:32:04.329Z,3.68
2023-03-06T18:34:31.986Z,3.66
2023-03-06T18:36:59.590Z,3.79
2023-03-06T18:39:29.630Z,3.68
2023-03-06T18:41:57.236Z,3.67
2023-03-06T18:44:24.851Z,3.68
2023-03-06T18:46:52.504Z,3.66
2023-03-06T18:49:20.181Z,3.67
2023-03-06T18:51:48.179Z,3.67
2023-03-06T18:54:15.801Z,3.65
2023-03-06T18:56:45.775Z,3.68
2023-03-06T18:59:18.252Z,3.66
2023-03-06T19:01:47.579Z,3.67
2023-03-06T19:04:16.753Z,3.68
2023-03-06T19:06:44.712Z,3.72
2023-03-06T19:09:14.666Z,3.70
2023-03-06T19:11:42.941Z,3.68
2023-03-06T19:14:10.820Z,3.65
2023-03-06T19:16:38.445Z,3.58
2023-03-06T19:19:06.077Z,3.65
2023-03-06T19:21:36.019Z,3.60
2023-03-06T19:24:06.857Z,3.57
2023-03-06T19:26:37.086Z,3.58
2023-03-06T19:29:06.784Z,3.61
2023-03-06T19:31:34.702Z,3.60
2023-03-06T19:34:02.426Z,3.56
2023-03-06T19:36:33.563Z,3.57
2023-03-06T19:39:04.226Z,3.56
2023-03-06T19:41:32.678Z,3.54
2023-03-06T19:44:05.649Z,3.54
2023-03-06T19:46:36.146Z,3.50
2023-03-06T19:49:09.651Z,3.43
2023-03-06T19:51:37.259Z,3.37
2023-03-06T19:54:05.152Z,3.19
2023-03-06T19:56:33.731Z,3.24
2023-03-06T19:59:01.502Z,3.22
2023-03-06T20:01:34.128Z,3.16
2023-03-06T20:04:01.932Z,3.10
2023-03-06T20:06:34.231Z,3.09
2023-03-06T20:09:05.791Z,3.02
2023-03-06T20:11:35.570Z,2.96
2023-03-06T20:14:07.675Z,2.87
2023-03-06T20:16:36.234Z,2.85
2023-03-06T20:19:07.387Z,2.83
2023-03-06T20:21:37.862Z,2.81
2023-03-06T20:24:09.290Z,2.78
2023-03-06T20:26:38.126Z,2.79
2023-03-06T20:29:05.842Z,2.87
2023-03-06T20:31:33.720Z,2.89
2023-03-06T20:34:01.370Z,2.88
2023-03-06T20:36:35.949Z,2.86
2023-03-06T20:39:12.220Z,2.86
2023-03-06T20:41:40.468Z,2.83
2023-03-06T20:44:11.995Z,2.79
2023-03-06T20:46:41.300Z,2.80
2023-03-06T20:49:10.088Z,2.78
2023-03-06T20:51:39.346Z,2.82
2023-03-06T20:54:13.531Z,2.81
2023-03-06T20:56:43.277Z,2.84
2023-03-06T20:59:14.288Z,2.88
2023-03-06T21:01:44.055Z,2.93
2023-03-06T21:04:14.242Z,2.93
2023-03-06T21:06:45.340Z,2.96
2023-03-06T21:09:14.806Z,2.99
2023-03-06T21:11:42.471Z,3.02
2023-03-06T21:14:10.824Z,3.02
2023-03-06T21:16:38.510Z,3.06
2023-03-06T21:19:06.289Z,3.10
2023-03-06T21:21:36.168Z,3.13
2023-03-06T21:24:03.899Z,3.15
2023-03-06T21:26:34.711Z,3.19
2023-03-06T21:29:03.242Z,3.21
2023-03-06T21:31:35.383Z,3.21
2023-03-06T21:34:05.040Z,3.19
2023-03-06T21:36:33.388Z,3.12
2023-03-06T21:39:01.076Z,3.08
2023-03-06T21:41:33.899Z,3.01
2023-03-06T21:44:03.790Z,2.91
2023-03-06T21:46:33.341Z,2.82
2023-03-06T21:49:03.788Z,2.72
2023-03-06T21:51:31.380Z,2.68
2023-03-06T21:53:59.056Z,2.64
2023-03-06T21:56:29.028Z,2.60
2023-03-06T21:58:58.268Z,2.57
2023-03-06T22:01:28.403Z,2.56
2023-03-06T22:03:56.572Z,2.55
2023-03-06T22:06:29.533Z,2.54
2023-03-06T22:08:59.019Z,2.54
2023-03-06T22:11:31.338Z,2.50
2023-03-06T22:13:59.104Z,2.51
2023-03-06T22:16:26.707Z,2.51
2023-03-06T22:18:54.391Z,2.51
2023-03-06T22:21:23.444Z,2.50
2023-03-06T22:23:57.229Z,2.49
2023-03-06T22:26:30.258Z,2.48
2023-03-06T22:28:58.488Z,2.46
2023-03-06T22:31:28.517Z,2.45
2023-03-06T22:33:58.382Z,2.45
2023-03-06T22:36:26.829Z,2.45
2023-03-06T22:38:56.656Z,2.38
2023-03-06T22:41:26.760Z,2.37
2023-03-06T22:43:58.135Z,2.34
2023-03-06T22:46:29.128Z,2.35
2023-03-06T22:48:57.992Z,2.32
2023-03-06T22:51:26.837Z,2.32
2023-03-06T22:53:54.460Z,2.30
2023-03-06T22:56:23.467Z,2.35
2023-03-06T22:58:53.440Z,2.36
2023-03-06T23:01:25.171Z,2.43
2023-03-06T23:03:55.667Z,2.48
2023-03-06T23:06:30.681Z,2.50
2023-03-06T23:09:07.738Z,2.48
2023-03-06T23:11:38.310Z,2.44
2023-03-06T23:14:06.366Z,2.45
2023-03-06T23:16:34.615Z,2.40
2023-03-06T23:19:02.256Z,2.32
2023-03-06T23:21:29.858Z,2.24
2023-03-06T23:23:57.690Z,2.14
2023-03-06T23:26:27.597Z,2.08
2023-03-06T23:28:56.422Z,2.03
2023-03-06T23:31:28.539Z,1.98
2023-03-06T23:34:00.817Z,1.96
2023-03-06T23:36:29.569Z,1.94
2023-03-06T23:38:57.437Z,1.91
2023-03-06T23:41:25.845Z,1.89
2023-03-06T23:43:55.272Z,1.85
2023-03-06T23:46:23.758Z,1.80
2023-03-06T23:48:51.452Z,1.75
2023-03-06T23:51:21.840Z,1.71
2023-03-06T23:53:56.201Z,1.70
2023-03-06T23:56:24.948Z,1.65
2023-03-06T23:58:55.318Z,1.60
